Time;durP1;ratioP1;P1;durP2;ratioP2;P2;SDS_P1;SDS_P2;PMS_P1;PMS_P2;Temp;Humidity;BMP_temperature;BMP_pressure;BME280_temperature;BME280_humidity;BME280_pressure;Samples;Min_cycle;Max_cycle;Signal;HPM_P1;HPM_P2
2023/09/28 00:00:46;;;;;;;7.40;3.62;;;;;;;;;;4349882;32;317583;-84
2023/09/28 00:06:00;;;;;;;27.52;15.38;;;;;;;;;;4342997;32;319111;-87
2023/09/28 00:08:46;;;;;;;25.30;13.62;;;;;;;;;;4340592;32;318782;-85
2023/09/28 00:11:31;;;;;;;17.08;8.43;;;;;;;;;;4341533;32;318946;-84
2023/09/28 00:14:16;;;;;;;16.25;6.40;;;;;;;;;;4352644;32;317711;-84
2023/09/28 00:16:46;;;;;;;20.60;5.75;;;;;;;;;;4342529;32;418123;-83
2023/09/28 00:19:15;;;;;;;8.15;4.10;;;;;;;;;;4354891;32;317817;-84
2023/09/28 00:21:41;;;;;;;12.37;4.18;;;;;;;;;;4365968;32;316799;-82
2023/09/28 00:24:10;;;;;;;11.38;4.12;;;;;;;;;;4355708;32;318125;-84
2023/09/28 00:26:37;;;;;;;11.75;4.05;;;;;;;;;;4370300;32;317793;-86
2023/09/28 00:31:49;;;;;;;10.60;3.60;;;;;;;;;;4369521;32;317677;-86
2023/09/28 00:34:35;;;;;;;8.13;3.58;;;;;;;;;;4355980;32;317765;-86
2023/09/28 00:37:02;;;;;;;6.95;3.83;;;;;;;;;;4359787;32;316817;-84
2023/09/28 00:39:30;;;;;;;7.45;3.75;;;;;;;;;;4367889;32;315621;-85
2023/09/28 00:41:58;;;;;;;8.20;3.83;;;;;;;;;;4370594;32;316705;-86
2023/09/28 00:44:25;;;;;;;8.05;3.45;;;;;;;;;;4352660;32;416077;-82
2023/09/28 00:52:24;;;;;;;6.97;4.87;;;;;;;;;;4353864;32;317636;-83
2023/09/28 00:54:50;;;;;;;13.25;6.57;;;;;;;;;;4377965;32;316463;-84
2023/09/28 00:57:17;;;;;;;15.68;7.65;;;;;;;;;;4371198;32;317491;-84
2023/09/28 00:59:44;;;;;;;15.70;5.18;;;;;;;;;;4373571;32;317980;-83
2023/09/28 01:02:12;;;;;;;12.65;4.05;;;;;;;;;;4358348;32;317919;-89
2023/09/28 01:05:00;;;;;;;6.78;3.60;;;;;;;;;;4365970;32;318105;-86
2023/09/28 01:07:26;;;;;;;6.25;3.85;;;;;;;;;;4355672;32;416523;-83
2023/09/28 01:10:14;;;;;;;16.20;4.30;;;;;;;;;;4368340;32;338158;-84
2023/09/28 01:12:41;;;;;;;11.27;3.83;;;;;;;;;;4345146;32;420290;-82
2023/09/28 01:15:28;;;;;;;9.48;3.15;;;;;;;;;;4356159;32;317737;-85
2023/09/28 01:17:54;;;;;;;9.30;3.87;;;;;;;;;;4366837;32;316941;-82
2023/09/28 01:20:34;;;;;;;7.10;3.45;;;;;;;;;;4351419;32;328548;-82
2023/09/28 01:23:02;;;;;;;11.23;4.07;;;;;;;;;;4358095;32;319435;-85
2023/09/28 01:25:30;;;;;;;5.28;3.70;;;;;;;;;;4361267;32;318017;-84
2023/09/28 01:27:56;;;;;;;9.25;4.53;;;;;;;;;;4369550;32;316593;-84
2023/09/28 01:30:24;;;;;;;10.98;3.45;;;;;;;;;;4351200;32;417603;-84
2023/09/28 01:32:52;;;;;;;7.57;3.50;;;;;;;;;;4369757;32;317739;-85
2023/09/28 01:35:20;;;;;;;9.02;3.45;;;;;;;;;;4358825;32;316735;-84
2023/09/28 01:38:09;;;;;;;15.25;4.37;;;;;;;;;;4366023;32;316788;-84
2023/09/28 01:40:38;;;;;;;11.10;3.60;;;;;;;;;;4347300;32;417190;-84
2023/09/28 01:43:04;;;;;;;8.40;3.83;;;;;;;;;;4357381;32;317702;-84
2023/09/28 01:45:32;;;;;;;8.43;3.87;;;;;;;;;;4368797;32;316768;-87
2023/09/28 01:47:58;;;;;;;14.75;4.28;;;;;;;;;;4362704;32;316770;-85
2023/09/28 01:50:25;;;;;;;5.68;3.20;;;;;;;;;;4367364;32;318424;-84
2023/09/28 01:52:52;;;;;;;6.72;3.60;;;;;;;;;;4367108;32;316801;-86
2023/09/28 01:55:19;;;;;;;7.37;4.50;;;;;;;;;;4357384;32;316908;-84
2023/09/28 02:00:51;;;;;;;13.02;3.62;;;;;;;;;;4350096;32;388145;-86
2023/09/28 02:03:17;;;;;;;8.98;3.58;;;;;;;;;;4352324;32;317900;-83
2023/09/28 02:05:45;;;;;;;12.63;3.62;;;;;;;;;;4362330;32;344280;-84
2023/09/28 02:08:12;;;;;;;11.43;4.20;;;;;;;;;;4348905;32;318027;-88
2023/09/28 02:10:58;;;;;;;18.48;4.00;;;;;;;;;;4360238;32;317780;-84
2023/09/28 02:13:26;;;;;;;11.52;3.60;;;;;;;;;;4348450;32;387020;-83
2023/09/28 02:15:53;;;;;;;8.80;3.62;;;;;;;;;;4367731;32;317644;-84
2023/09/28 02:18:37;;;;;;;16.30;3.45;;;;;;;;;;4356425;32;317001;-84
2023/09/28 02:21:14;;;;;;;6.62;3.67;;;;;;;;;;4355948;32;339887;-84
2023/09/28 02:23:40;;;;;;;10.02;3.90;;;;;;;;;;4369171;32;316849;-85
2023/09/28 02:26:10;;;;;;;11.05;3.72;;;;;;;;;;4357938;32;317918;-86
2023/09/28 02:28:38;;;;;;;5.32;3.65;;;;;;;;;;4368309;32;317514;-85
2023/09/28 02:31:24;;;;;;;14.00;4.82;;;;;;;;;;4357721;32;317268;-86
2023/09/28 02:33:51;;;;;;;11.02;3.55;;;;;;;;;;4368064;32;317796;-82
2023/09/28 02:36:19;;;;;;;8.13;4.00;;;;;;;;;;4352444;32;317874;-86
2023/09/28 02:39:12;;;;;;;6.75;3.55;;;;;;;;;;4367824;32;316709;-86
2023/09/28 02:44:26;;;;;;;8.50;3.85;;;;;;;;;;4352105;32;389048;-86
2023/09/28 02:46:52;;;;;;;12.68;3.72;;;;;;;;;;4367308;32;316671;-84
2023/09/28 02:49:20;;;;;;;12.70;3.72;;;;;;;;;;4355703;32;317858;-86
2023/09/28 02:51:46;;;;;;;9.05;4.12;;;;;;;;;;4369740;32;317868;-86
2023/09/28 02:54:14;;;;;;;11.23;4.18;;;;;;;;;;4353613;32;316766;-84
2023/09/28 02:56:58;;;;;;;13.62;3.58;;;;;;;;;;4368427;32;317980;-85
2023/09/28 02:59:45;;;;;;;5.50;3.42;;;;;;;;;;4355960;32;417543;-87
2023/09/28 03:02:13;;;;;;;7.10;3.30;;;;;;;;;;4353504;32;324811;-86
2023/09/28 03:04:41;;;;;;;14.02;3.33;;;;;;;;;;4367193;32;316761;-87
2023/09/28 03:07:07;;;;;;;11.32;3.90;;;;;;;;;;4356984;32;317775;-84
2023/09/28 03:09:35;;;;;;;8.60;3.85;;;;;;;;;;4369227;32;317705;-85
2023/09/28 03:12:01;;;;;;;12.73;3.50;;;;;;;;;;4358634;32;316816;-85
2023/09/28 03:14:30;;;;;;;10.32;3.75;;;;;;;;;;4364225;32;332625;-85
2023/09/28 03:16:56;;;;;;;7.78;3.70;;;;;;;;;;4368518;32;318022;-84
2023/09/28 03:22:10;;;;;;;12.40;4.13;;;;;;;;;;4355951;32;324315;-83
2023/09/28 03:24:38;;;;;;;7.10;3.33;;;;;;;;;;4367255;32;322250;-85
2023/09/28 03:29:52;;;;;;;8.23;3.87;;;;;;;;;;4367355;32;317839;-83
2023/09/28 03:32:19;;;;;;;9.40;4.40;;;;;;;;;;4352808;32;316653;-87
2023/09/28 03:34:46;;;;;;;11.93;3.20;;;;;;;;;;4368964;32;316709;-85
2023/09/28 03:37:18;;;;;;;11.45;4.05;;;;;;;;;;4356810;32;346592;-85
2023/09/28 03:39:45;;;;;;;4.78;3.53;;;;;;;;;;4367171;32;317935;-84
2023/09/28 03:42:14;;;;;;;9.68;3.67;;;;;;;;;;4356450;32;321408;-83
2023/09/28 03:45:03;;;;;;;10.80;3.60;;;;;;;;;;4365034;32;316983;-84
2023/09/28 03:47:31;;;;;;;10.73;3.65;;;;;;;;;;4354046;32;417082;-83
2023/09/28 03:49:59;;;;;;;12.82;3.72;;;;;;;;;;4365321;32;348252;-85
2023/09/28 03:58:01;;;;;;;20.35;7.75;;;;;;;;;;4366404;32;317784;-86
2023/09/28 04:00:31;;;;;;;21.70;12.40;;;;;;;;;;4352074;32;421167;-85
2023/09/28 04:02:59;;;;;;;26.30;14.98;;;;;;;;;;4369785;32;318981;-85
2023/09/28 04:05:27;;;;;;;25.33;14.70;;;;;;;;;;4355775;32;388698;-84
2023/09/28 04:07:54;;;;;;;19.85;11.77;;;;;;;;;;4361155;32;318829;-84
2023/09/28 04:10:22;;;;;;;13.85;6.47;;;;;;;;;;4350207;32;318890;-84
2023/09/28 04:12:49;;;;;;;15.93;6.47;;;;;;;;;;4359871;32;318065;-83
2023/09/28 04:15:34;;;;;;;16.55;5.62;;;;;;;;;;4352159;32;318129;-85
2023/09/28 04:18:04;;;;;;;9.82;5.22;;;;;;;;;;4348400;32;326900;-84
2023/09/28 04:20:31;;;;;;;10.00;4.35;;;;;;;;;;4361058;32;316711;-85
2023/09/28 04:22:59;;;;;;;5.82;3.47;;;;;;;;;;4364960;32;317637;-84
2023/09/28 04:25:29;;;;;;;8.65;3.87;;;;;;;;;;4352619;32;416231;-85
2023/09/28 04:27:56;;;;;;;9.00;4.03;;;;;;;;;;4360269;32;316722;-85
2023/09/28 04:33:10;;;;;;;45.92;21.27;;;;;;;;;;4355777;32;316817;-87
2023/09/28 04:35:56;;;;;;;32.40;15.57;;;;;;;;;;4361126;32;318633;-84
2023/09/28 04:38:24;;;;;;;32.28;15.20;;;;;;;;;;4348187;32;318898;-84
2023/09/28 04:40:51;;;;;;;31.05;12.45;;;;;;;;;;4361432;32;318738;-85
2023/09/28 04:43:19;;;;;;;24.95;12.40;;;;;;;;;;4355733;32;350051;-84
2023/09/28 04:48:33;;;;;;;15.77;9.52;;;;;;;;;;4353937;32;388010;-85
2023/09/28 04:51:19;;;;;;;12.93;7.43;;;;;;;;;;4352414;32;317942;-86
2023/09/28 04:53:46;;;;;;;24.20;7.78;;;;;;;;;;4364374;32;317731;-85
2023/09/28 04:56:15;;;;;;;15.05;6.05;;;;;;;;;;4350783;32;318090;-86
2023/09/28 04:58:43;;;;;;;17.62;4.95;;;;;;;;;;4363693;32;317724;-85
2023/09/28 05:01:29;;;;;;;16.30;5.72;;;;;;;;;;4350870;32;317597;-83
2023/09/28 05:03:59;;;;;;;12.55;3.67;;;;;;;;;;4363779;32;317650;-87
2023/09/28 05:11:56;;;;;;;22.95;7.78;;;;;;;;;;4368162;32;318026;-85
2023/09/28 05:14:24;;;;;;;29.25;10.35;;;;;;;;;;4346467;32;318037;-93
2023/09/28 05:16:53;;;;;;;41.47;20.85;;;;;;;;;;4360856;32;318747;-92
2023/09/28 05:19:24;;;;;;;28.05;13.95;;;;;;;;;;4352004;32;318833;-91
2023/09/28 05:21:52;;;;;;;20.50;7.10;;;;;;;;;;4363217;32;318844;-88
2023/09/28 05:24:19;;;;;;;8.07;5.25;;;;;;;;;;4346184;32;317608;-90
2023/09/28 05:26:47;;;;;;;12.88;7.87;;;;;;;;;;4365640;32;316687;-94
2023/09/28 05:29:15;;;;;;;14.13;6.90;;;;;;;;;;4353193;32;318000;-93
2023/09/28 05:31:43;;;;;;;13.80;7.75;;;;;;;;;;4368917;32;317825;-90
2023/09/28 05:34:44;;;;;;;20.25;7.28;;;;;;;;;;4349184;32;359444;-90
2023/09/28 05:40:20;;;;;;;18.00;5.93;;;;;;;;;;4365261;32;316418;-92
2023/09/28 05:42:50;;;;;;;18.77;7.55;;;;;;;;;;4330517;32;390100;-93
2023/09/28 05:45:35;;;;;;;11.73;4.60;;;;;;;;;;4352419;32;317879;-92
2023/09/28 05:48:03;;;;;;;9.73;5.03;;;;;;;;;;4347544;32;317896;-92
2023/09/28 05:50:32;;;;;;;14.87;4.57;;;;;;;;;;4358024;32;316619;-92
2023/09/28 05:53:02;;;;;;;13.27;4.40;;;;;;;;;;4353064;32;317841;-93
2023/09/28 05:55:31;;;;;;;19.40;6.18;;;;;;;;;;4363212;32;317698;-92
2023/09/28 05:58:02;;;;;;;16.52;4.78;;;;;;;;;;4359176;32;317458;-92
2023/09/28 06:00:30;;;;;;;12.75;3.72;;;;;;;;;;4343958;32;419902;-93
2023/09/28 06:03:16;;;;;;;16.83;5.22;;;;;;;;;;4358515;32;317711;-90
2023/09/28 06:05:43;;;;;;;15.77;4.75;;;;;;;;;;4350919;32;389006;-92
2023/09/28 06:08:32;;;;;;;7.95;3.92;;;;;;;;;;4349101;32;317526;-94
2023/09/28 06:11:01;;;;;;;8.02;4.60;;;;;;;;;;4353220;32;316797;-93
2023/09/28 06:13:31;;;;;;;10.55;3.22;;;;;;;;;;4368157;32;316267;-91
2023/09/28 06:18:46;;;;;;;20.35;3.92;;;;;;;;;;4349559;32;388934;-91
2023/09/28 06:21:14;;;;;;;6.72;3.08;;;;;;;;;;4349563;32;317713;-91
2023/09/28 06:23:44;;;;;;;8.60;3.12;;;;;;;;;;4361485;32;316678;-92
2023/09/28 06:26:14;;;;;;;7.32;3.58;;;;;;;;;;4346957;32;316793;-90
2023/09/28 06:28:42;;;;;;;7.20;3.58;;;;;;;;;;4360498;32;316616;-91
2023/09/28 06:31:11;;;;;;;15.02;3.95;;;;;;;;;;4348547;32;316662;-91
2023/09/28 06:33:58;;;;;;;6.05;2.67;;;;;;;;;;4360130;32;317703;-93
2023/09/28 06:36:26;;;;;;;9.85;3.20;;;;;;;;;;4332924;32;418852;-90
2023/09/28 06:39:14;;;;;;;13.27;2.70;;;;;;;;;;4358662;32;325719;-93
2023/09/28 06:44:27;;;;;;;11.48;3.37;;;;;;;;;;4361003;32;388785;-91
2023/09/28 06:46:57;;;;;;;8.98;2.90;;;;;;;;;;4373770;32;317693;-90
2023/09/28 06:49:27;;;;;;;9.98;2.17;;;;;;;;;;4363231;32;316946;-91
2023/09/28 06:51:55;;;;;;;15.90;2.90;;;;;;;;;;4374567;32;316541;-91
2023/09/28 06:54:27;;;;;;;9.45;2.55;;;;;;;;;;4360476;32;323187;-91
2023/09/28 06:57:13;;;;;;;14.52;2.97;;;;;;;;;;4377742;32;316845;-90
2023/09/28 06:59:41;;;;;;;11.20;3.28;;;;;;;;;;4368961;32;388136;-90
2023/09/28 07:02:10;;;;;;;9.93;3.17;;;;;;;;;;4375080;32;317833;-92
2023/09/28 07:07:24;;;;;;;8.45;2.67;;;;;;;;;;4376132;32;316545;-94
2023/09/28 07:10:15;;;;;;;5.75;2.70;;;;;;;;;;4381150;32;316757;-91
2023/09/28 07:12:42;;;;;;;5.40;2.65;;;;;;;;;;4371879;32;419988;-90
2023/09/28 07:15:11;;;;;;;8.10;2.58;;;;;;;;;;4366421;32;316539;-94
2023/09/28 07:17:40;;;;;;;10.52;3.58;;;;;;;;;;4374466;32;316798;-92
2023/09/28 07:20:09;;;;;;;7.35;2.67;;;;;;;;;;4361726;32;317809;-93
2023/09/28 07:22:57;;;;;;;6.03;3.12;;;;;;;;;;4374367;32;316635;-92
2023/09/28 07:25:27;;;;;;;11.18;3.12;;;;;;;;;;4361061;32;417291;-93
2023/09/28 07:27:55;;;;;;;11.73;3.08;;;;;;;;;;4374763;32;317687;-90
2023/09/28 07:30:23;;;;;;;14.07;3.08;;;;;;;;;;4360993;32;323608;-91
2023/09/28 07:35:36;;;;;;;6.03;2.95;;;;;;;;;;4361392;32;386609;-90
2023/09/28 07:38:03;;;;;;;7.87;2.33;;;;;;;;;;4358214;32;316828;-96
2023/09/28 07:40:36;;;;;;;7.78;2.67;;;;;;;;;;4360992;32;316641;-91
2023/09/28 07:43:22;;;;;;;4.82;2.45;;;;;;;;;;4351545;32;316832;-92
2023/09/28 07:45:51;;;;;;;7.90;2.92;;;;;;;;;;4363595;32;316944;-95
2023/09/28 07:48:18;;;;;;;10.13;2.47;;;;;;;;;;4353131;32;316754;-94
2023/09/28 07:50:46;;;;;;;7.60;2.80;;;;;;;;;;4366297;32;317715;-94
2023/09/28 07:53:34;;;;;;;6.93;3.17;;;;;;;;;;4354924;32;316592;-96
2023/09/28 07:56:03;;;;;;;10.75;2.78;;;;;;;;;;4358368;32;317197;-89
2023/09/28 07:58:49;;;;;;;8.27;2.65;;;;;;;;;;4360347;32;318232;-89
2023/09/28 08:01:17;;;;;;;9.93;3.03;;;;;;;;;;4351954;32;316553;-89
2023/09/28 08:03:46;;;;;;;5.55;2.70;;;;;;;;;;4364161;32;316902;-89
2023/09/28 08:06:13;;;;;;;6.80;2.55;;;;;;;;;;4351220;32;316631;-90
2023/09/28 08:11:28;;;;;;;9.50;2.72;;;;;;;;;;4364960;32;386802;-89
2023/09/28 08:16:40;;;;;;;9.02;2.75;;;;;;;;;;4347644;32;387799;-95
2023/09/28 08:19:11;;;;;;;5.30;2.53;;;;;;;;;;4359920;32;316584;-93
2023/09/28 08:21:40;;;;;;;8.45;2.78;;;;;;;;;;4351454;32;316769;-94
2023/09/28 08:24:11;;;;;;;8.40;2.87;;;;;;;;;;4350260;32;316994;-89
2023/09/28 08:26:42;;;;;;;11.12;2.83;;;;;;;;;;4366820;32;316723;-93
2023/09/28 08:29:10;;;;;;;11.45;2.75;;;;;;;;;;4354183;32;318342;-91
2023/09/28 08:31:39;;;;;;;7.40;3.15;;;;;;;;;;4365218;32;317802;-96
2023/09/28 08:37:10;;;;;;;6.68;2.87;;;;;;;;;;4358087;32;317743;-94
2023/09/28 08:39:39;;;;;;;10.18;2.67;;;;;;;;;;4366117;32;351163;-93
2023/09/28 08:42:22;;;;;;;12.73;2.60;;;;;;;;;;4356834;32;317862;-94
2023/09/28 08:47:56;;;;;;;11.30;3.28;;;;;;;;;;4356332;32;387648;-96
2023/09/28 08:50:44;;;;;;;8.63;4.12;;;;;;;;;;4353266;32;317652;-90
2023/09/28 08:53:13;;;;;;;5.28;2.70;;;;;;;;;;4364938;32;316842;-93
2023/09/28 08:58:27;;;;;;;13.68;2.42;;;;;;;;;;4368110;32;387432;-90
2023/09/28 09:03:41;;;;;;;9.48;3.03;;;;;;;;;;4367122;32;387694;-89
2023/09/28 09:06:20;;;;;;;7.87;2.57;;;;;;;;;;4365328;32;316984;-90
2023/09/28 09:08:50;;;;;;;7.10;2.90;;;;;;;;;;4377947;32;336339;-93
2023/09/28 09:14:08;;;;;;;4.10;2.37;;;;;;;;;;4364014;32;316513;-91
2023/09/28 09:16:39;;;;;;;7.32;3.08;;;;;;;;;;4374150;32;315637;-89
2023/09/28 09:19:07;;;;;;;15.38;3.45;;;;;;;;;;4364952;32;316627;-89
2023/09/28 09:21:41;;;;;;;7.45;2.40;;;;;;;;;;4381848;32;317899;-91
2023/09/28 09:24:27;;;;;;;4.62;2.12;;;;;;;;;;4376248;32;316751;-92
2023/09/28 09:26:56;;;;;;;4.72;2.25;;;;;;;;;;4385622;32;316943;-91
2023/09/28 09:29:27;;;;;;;7.00;3.05;;;;;;;;;;4369809;32;316601;-91
2023/09/28 09:31:54;;;;;;;4.10;2.65;;;;;;;;;;4380750;32;344199;-93
2023/09/28 09:34:26;;;;;;;10.65;3.47;;;;;;;;;;4367015;32;316888;-91
2023/09/28 09:36:58;;;;;;;14.60;3.20;;;;;;;;;;4382171;32;317699;-95
2023/09/28 09:39:27;;;;;;;5.62;2.80;;;;;;;;;;4349349;32;416964;-90
2023/09/28 09:41:58;;;;;;;8.38;3.10;;;;;;;;;;4384797;32;316855;-92
2023/09/28 09:44:28;;;;;;;10.45;3.25;;;;;;;;;;4367904;32;416099;-90
2023/09/28 09:46:57;;;;;;;5.70;2.85;;;;;;;;;;4382162;32;317851;-91
2023/09/28 09:49:25;;;;;;;6.82;3.03;;;;;;;;;;4382078;32;316823;-88
2023/09/28 09:51:55;;;;;;;5.03;3.30;;;;;;;;;;4386759;32;316655;-89
2023/09/28 09:54:22;;;;;;;9.00;2.97;;;;;;;;;;4369701;32;316880;-95
2023/09/28 10:02:29;;;;;;;14.98;2.58;;;;;;;;;;4371937;32;387749;-95
2023/09/28 10:04:58;;;;;;;10.32;2.62;;;;;;;;;;4387512;32;317729;-95
2023/09/28 10:07:32;;;;;;;10.30;3.20;;;;;;;;;;4372468;32;420136;-93
2023/09/28 10:10:00;;;;;;;8.15;3.15;;;;;;;;;;4388576;32;317453;-94
2023/09/28 10:12:28;;;;;;;5.50;2.97;;;;;;;;;;4369753;32;386822;-92
2023/09/28 10:15:16;;;;;;;11.20;3.17;;;;;;;;;;4379516;32;316775;-93
2023/09/28 10:17:45;;;;;;;10.52;3.08;;;;;;;;;;4376778;32;417392;-91
2023/09/28 10:20:18;;;;;;;6.70;2.12;;;;;;;;;;4368233;32;317521;-92
2023/09/28 10:25:59;;;;;;;5.35;2.60;;;;;;;;;;4369920;32;387895;-92
2023/09/28 10:28:28;;;;;;;7.90;2.65;;;;;;;;;;4360277;32;389535;-93
2023/09/28 10:31:27;;;;;;;4.90;3.12;;;;;;;;;;4380652;32;316469;-93
2023/09/28 10:34:00;;;;;;;7.90;2.90;;;;;;;;;;4374933;32;419241;-93
2023/09/28 10:36:30;;;;;;;10.75;2.85;;;;;;;;;;4362725;32;419663;-93
2023/09/28 10:39:18;;;;;;;12.27;2.87;;;;;;;;;;4378366;32;317701;-92
2023/09/28 10:42:06;;;;;;;10.57;2.80;;;;;;;;;;4358026;32;420406;-93
2023/09/28 10:44:34;;;;;;;15.60;3.00;;;;;;;;;;4348554;32;421424;-94
2023/09/28 10:47:03;;;;;;;7.47;2.72;;;;;;;;;;4357388;32;317720;-93
2023/09/28 10:49:30;;;;;;;4.10;2.72;;;;;;;;;;4366602;32;316691;-93
2023/09/28 10:51:58;;;;;;;4.30;2.67;;;;;;;;;;4365219;32;316481;-94
2023/09/28 10:54:27;;;;;;;14.27;3.50;;;;;;;;;;4369821;32;307920;-93
2023/09/28 10:57:13;;;;;;;13.40;3.65;;;;;;;;;;4375079;32;317177;-94
2023/09/28 10:59:42;;;;;;;7.72;2.53;;;;;;;;;;4367879;32;388657;-90
2023/09/28 11:02:13;;;;;;;10.52;3.30;;;;;;;;;;4368648;32;316662;-91
2023/09/28 11:04:41;;;;;;;4.45;2.60;;;;;;;;;;4378301;32;317551;-93
2023/09/28 11:07:10;;;;;;;7.15;2.65;;;;;;;;;;4365114;32;316722;-94
2023/09/28 11:09:41;;;;;;;10.63;3.08;;;;;;;;;;4376904;32;317044;-95
2023/09/28 11:15:31;;;;;;;5.40;3.30;;;;;;;;;;4371226;32;316551;-91
2023/09/28 11:18:01;;;;;;;9.18;2.87;;;;;;;;;;4376657;32;316680;-91
2023/09/28 11:20:31;;;;;;;9.93;3.33;;;;;;;;;;4362353;32;416989;-91
2023/09/28 11:25:44;;;;;;;9.68;2.72;;;;;;;;;;4362328;32;388894;-93
2023/09/28 11:28:16;;;;;;;6.43;2.90;;;;;;;;;;4362902;32;316586;-91
2023/09/28 11:31:01;;;;;;;17.15;4.03;;;;;;;;;;4378933;32;316400;-93
2023/09/28 11:33:31;;;;;;;13.00;3.22;;;;;;;;;;4366158;32;388782;-94
2023/09/28 11:35:59;;;;;;;37.97;12.27;;;;;;;;;;4358441;32;317554;-91
2023/09/28 11:38:27;;;;;;;40.20;11.90;;;;;;;;;;4358612;32;417446;-91
2023/09/28 11:40:54;;;;;;;34.45;10.52;;;;;;;;;;4376379;32;318740;-82
2023/09/28 11:43:21;;;;;;;10.43;3.33;;;;;;;;;;4364408;32;342642;-86
2023/09/28 11:45:49;;;;;;;14.40;4.32;;;;;;;;;;4376954;32;318053;-82
2023/09/28 11:48:36;;;;;;;7.70;3.28;;;;;;;;;;4362981;32;317686;-82
2023/09/28 11:51:04;;;;;;;11.30;3.97;;;;;;;;;;4368759;32;316783;-82
2023/09/28 11:53:31;;;;;;;28.45;7.40;;;;;;;;;;4377460;32;317866;-82
2023/09/28 11:56:01;;;;;;;11.10;4.20;;;;;;;;;;4374534;32;336755;-84
2023/09/28 11:58:29;;;;;;;12.02;4.62;;;;;;;;;;4361302;32;417131;-83
2023/09/28 12:06:45;;;;;;;10.43;4.57;;;;;;;;;;4364559;32;387930;-84
2023/09/28 12:09:17;;;;;;;29.00;7.00;;;;;;;;;;4368742;32;317799;-84
2023/09/28 12:11:45;;;;;;;5.50;3.30;;;;;;;;;;4378478;32;317822;-84
2023/09/28 12:14:12;;;;;;;5.62;3.00;;;;;;;;;;4362030;32;317204;-87
2023/09/28 12:16:42;;;;;;;7.87;3.03;;;;;;;;;;4374570;32;317074;-84
2023/09/28 12:19:11;;;;;;;5.97;2.55;;;;;;;;;;4364015;32;317172;-84
2023/09/28 12:21:39;;;;;;;12.15;5.05;;;;;;;;;;4370877;32;316974;-84
2023/09/28 12:24:07;;;;;;;7.85;2.95;;;;;;;;;;4366483;32;317734;-85
2023/09/28 12:26:54;;;;;;;13.85;4.47;;;;;;;;;;4375218;32;316552;-84
2023/09/28 12:29:40;;;;;;;12.20;3.55;;;;;;;;;;4373340;32;318046;-84
2023/09/28 12:32:08;;;;;;;8.77;3.05;;;;;;;;;;4372463;32;317788;-86
2023/09/28 12:34:37;;;;;;;13.57;3.22;;;;;;;;;;4376122;32;316580;-84
2023/09/28 12:37:04;;;;;;;5.28;2.50;;;;;;;;;;4367318;32;317910;-86
2023/09/28 12:39:32;;;;;;;7.35;2.97;;;;;;;;;;4379937;32;316666;-84
2023/09/28 12:42:00;;;;;;;15.10;4.07;;;;;;;;;;4377583;32;316703;-83
2023/09/28 12:44:28;;;;;;;6.18;2.70;;;;;;;;;;4365009;32;417228;-84
2023/09/28 12:46:55;;;;;;;11.05;2.78;;;;;;;;;;4381319;32;316767;-84
2023/09/28 12:52:11;;;;;;;8.77;3.25;;;;;;;;;;4368327;32;317074;-83
2023/09/28 12:54:57;;;;;;;9.98;2.97;;;;;;;;;;4379773;32;316615;-86
2023/09/28 12:57:24;;;;;;;5.43;2.50;;;;;;;;;;4370809;32;316983;-86
2023/09/28 12:59:52;;;;;;;11.02;3.65;;;;;;;;;;4380203;32;328679;-86
2023/09/28 13:02:20;;;;;;;12.75;3.15;;;;;;;;;;4363833;32;317864;-87
2023/09/28 13:04:47;;;;;;;11.48;2.83;;;;;;;;;;4379014;32;317922;-86
2023/09/28 13:07:17;;;;;;;5.78;3.17;;;;;;;;;;4373742;32;317981;-88
2023/09/28 13:09:44;;;;;;;18.10;2.78;;;;;;;;;;4381281;32;317325;-88
2023/09/28 13:12:14;;;;;;;7.72;3.03;;;;;;;;;;4364997;32;329562;-87
2023/09/28 13:14:43;;;;;;;7.87;2.50;;;;;;;;;;4377609;32;351898;-87
2023/09/28 13:17:12;;;;;;;18.70;3.87;;;;;;;;;;4367056;32;316815;-83
2023/09/28 13:19:41;;;;;;;9.43;2.97;;;;;;;;;;4379360;32;317657;-83
2023/09/28 13:22:10;;;;;;;9.80;2.70;;;;;;;;;;4365458;32;316797;-85
2023/09/28 13:24:40;;;;;;;9.40;3.12;;;;;;;;;;4372929;32;316734;-83
2023/09/28 13:27:07;;;;;;;11.23;2.50;;;;;;;;;;4376468;32;316680;-83
2023/09/28 13:29:35;;;;;;;5.78;2.70;;;;;;;;;;4369606;32;317833;-83
2023/09/28 13:32:02;;;;;;;8.57;2.58;;;;;;;;;;4376724;32;317281;-83
2023/09/28 13:34:30;;;;;;;15.13;2.55;;;;;;;;;;4363495;32;316724;-87
2023/09/28 13:36:58;;;;;;;10.60;3.58;;;;;;;;;;4377467;32;317917;-87
2023/09/28 13:39:30;;;;;;;10.25;4.25;;;;;;;;;;4379914;32;317684;-87
2023/09/28 13:42:01;;;;;;;8.80;3.05;;;;;;;;;;4363440;32;417211;-87
2023/09/28 13:44:28;;;;;;;8.43;2.80;;;;;;;;;;4378783;32;316532;-87
2023/09/28 13:46:56;;;;;;;10.45;3.00;;;;;;;;;;4362433;32;415994;-86
2023/09/28 13:49:24;;;;;;;9.05;3.28;;;;;;;;;;4378301;32;318018;-85
2023/09/28 13:51:51;;;;;;;8.18;3.25;;;;;;;;;;4366189;32;316785;-86
2023/09/28 13:54:20;;;;;;;8.95;2.62;;;;;;;;;;4376974;32;316917;-85
2023/09/28 13:56:49;;;;;;;11.85;2.95;;;;;;;;;;4367447;32;316914;-87
2023/09/28 13:59:18;;;;;;;7.18;2.62;;;;;;;;;;4378260;32;317516;-87
2023/09/28 14:01:47;;;;;;;9.98;3.12;;;;;;;;;;4371042;32;317132;-87
2023/09/28 14:04:14;;;;;;;9.02;2.70;;;;;;;;;;4377928;32;316921;-87
2023/09/28 14:06:44;;;;;;;9.43;3.33;;;;;;;;;;4365617;32;317107;-89
2023/09/28 14:09:12;;;;;;;15.02;3.70;;;;;;;;;;4378019;32;316897;-85
2023/09/28 14:11:41;;;;;;;10.52;2.95;;;;;;;;;;4366520;32;317779;-85
2023/09/28 14:14:10;;;;;;;9.18;3.60;;;;;;;;;;4379771;32;317879;-85
2023/09/28 14:16:39;;;;;;;5.07;2.83;;;;;;;;;;4369536;32;316824;-87
2023/09/28 14:19:07;;;;;;;8.18;3.08;;;;;;;;;;4375623;32;317456;-86
2023/09/28 14:21:34;;;;;;;11.77;4.28;;;;;;;;;;4365381;32;346456;-86
2023/09/28 14:24:05;;;;;;;13.82;3.08;;;;;;;;;;4377957;32;318154;-85
2023/09/28 14:26:33;;;;;;;6.57;2.87;;;;;;;;;;4365643;32;317826;-86
2023/09/28 14:29:00;;;;;;;12.70;3.47;;;;;;;;;;4375655;32;316950;-85
2023/09/28 14:31:28;;;;;;;4.87;2.85;;;;;;;;;;4379634;32;317837;-86
2023/09/28 14:33:57;;;;;;;5.22;3.15;;;;;;;;;;4367699;32;386410;-85
2023/09/28 14:36:26;;;;;;;9.35;2.78;;;;;;;;;;4378231;32;316864;-85
2023/09/28 14:38:53;;;;;;;7.07;3.28;;;;;;;;;;4362510;32;328913;-87
2023/09/28 14:41:22;;;;;;;11.40;3.80;;;;;;;;;;4377757;32;316695;-82
2023/09/28 14:43:52;;;;;;;9.73;3.40;;;;;;;;;;4363692;32;317802;-82
2023/09/28 14:46:19;;;;;;;8.15;3.40;;;;;;;;;;4377725;32;316740;-85
2023/09/28 14:48:47;;;;;;;7.25;3.37;;;;;;;;;;4368594;32;316805;-87
2023/09/28 14:51:16;;;;;;;12.40;3.67;;;;;;;;;;4379449;32;317001;-86
2023/09/28 14:53:45;;;;;;;8.50;3.50;;;;;;;;;;4344771;32;317833;-86
2023/09/28 14:56:13;;;;;;;29.42;4.70;;;;;;;;;;4368259;32;317121;-86
2023/09/28 14:58:41;;;;;;;8.13;2.78;;;;;;;;;;4356039;32;318099;-86
2023/09/28 15:01:08;;;;;;;9.57;3.78;;;;;;;;;;4366145;32;317067;-86
2023/09/28 15:03:35;;;;;;;9.57;3.45;;;;;;;;;;4355931;32;316720;-87
2023/09/28 15:06:03;;;;;;;10.90;3.05;;;;;;;;;;4366839;32;317129;-86
2023/09/28 15:08:32;;;;;;;9.13;3.10;;;;;;;;;;4356884;32;317823;-88
2023/09/28 15:11:00;;;;;;;14.73;3.58;;;;;;;;;;4362848;32;316678;-86
2023/09/28 15:13:28;;;;;;;13.10;3.33;;;;;;;;;;4366426;32;318250;-81
2023/09/28 15:15:55;;;;;;;8.52;3.03;;;;;;;;;;4354802;32;417490;-81
2023/09/28 15:18:23;;;;;;;12.27;3.40;;;;;;;;;;4367379;32;316904;-82
2023/09/28 15:20:50;;;;;;;17.42;4.05;;;;;;;;;;4355026;32;318005;-84
2023/09/28 15:23:17;;;;;;;10.65;4.15;;;;;;;;;;4366632;32;359189;-82
2023/09/28 15:25:46;;;;;;;10.10;4.03;;;;;;;;;;4357300;32;318014;-82
2023/09/28 15:28:14;;;;;;;18.60;3.17;;;;;;;;;;4367392;32;317887;-82
2023/09/28 15:30:53;;;;;;;12.48;3.90;;;;;;;;;;4357275;32;317944;-84
2023/09/28 15:33:20;;;;;;;7.70;3.90;;;;;;;;;;4368131;32;318145;-82
2023/09/28 15:35:48;;;;;;;14.18;3.67;;;;;;;;;;4357881;32;316866;-82
2023/09/28 15:38:16;;;;;;;17.90;3.75;;;;;;;;;;4368357;32;318191;-82
2023/09/28 15:40:43;;;;;;;9.63;3.40;;;;;;;;;;4355285;32;346228;-82
2023/09/28 15:43:12;;;;;;;12.52;3.33;;;;;;;;;;4366259;32;317112;-81
2023/09/28 15:45:44;;;;;;;8.15;3.40;;;;;;;;;;4357595;32;317980;-82
2023/09/28 15:48:12;;;;;;;7.10;2.95;;;;;;;;;;4368565;32;315664;-82
2023/09/28 15:50:40;;;;;;;12.45;4.15;;;;;;;;;;4358718;32;317031;-83
2023/09/28 15:53:08;;;;;;;8.20;3.45;;;;;;;;;;4365494;32;318121;-82
2023/09/28 15:55:35;;;;;;;7.40;3.83;;;;;;;;;;4357354;32;317512;-81
2023/09/28 15:58:03;;;;;;;4.60;2.60;;;;;;;;;;4369679;32;316909;-86
2023/09/28 16:00:33;;;;;;;15.55;3.47;;;;;;;;;;4359696;32;317204;-86
2023/09/28 16:03:01;;;;;;;7.55;3.17;;;;;;;;;;4367084;32;318085;-85
2023/09/28 16:05:29;;;;;;;9.88;3.72;;;;;;;;;;4359729;32;317115;-88
2023/09/28 16:07:58;;;;;;;10.85;3.12;;;;;;;;;;4370394;32;340009;-86
2023/09/28 16:10:25;;;;;;;12.93;3.45;;;;;;;;;;4368723;32;339974;-85
2023/09/28 16:12:53;;;;;;;10.63;3.30;;;;;;;;;;4354980;32;318229;-85
2023/09/28 16:15:20;;;;;;;14.98;3.75;;;;;;;;;;4368864;32;317915;-85
2023/09/28 16:17:49;;;;;;;14.48;3.62;;;;;;;;;;4358799;32;318152;-85
2023/09/28 16:20:17;;;;;;;9.75;3.25;;;;;;;;;;4370185;32;317991;-85